Time;durP1;ratioP1;P1;durP2;ratioP2;P2;SDS_P1;SDS_P2;PMS_P1;PMS_P2;Temp;Humidity;BMP_temperature;BMP_pressure;BME280_temperature;BME280_humidity;BME280_pressure;Samples;Min_cycle;Max_cycle;Signal;HPM_P1;HPM_P2
2021/08/12 00:00:44;;;;;;;7.13;2.15;;;;;;;;;;5055735;28;20028;-77
2021/08/12 00:03:10;;;;;;;7.05;2.17;;;;;;;;;;5055792;28;20029;-76
2021/08/12 00:05:35;;;;;;;7.80;2.30;;;;;;;;;;5055993;28;20087;-74
2021/08/12 00:08:01;;;;;;;14.95;2.63;;;;;;;;;;5055802;28;20048;-76
2021/08/12 00:10:26;;;;;;;9.90;2.00;;;;;;;;;;5055722;28;20029;-75
2021/08/12 00:12:51;;;;;;;9.88;2.25;;;;;;;;;;5054884;28;20070;-76
2021/08/12 00:15:17;;;;;;;7.72;2.05;;;;;;;;;;5055278;28;20021;-75
2021/08/12 00:17:42;;;;;;;8.70;2.47;;;;;;;;;;5054942;28;20461;-76
2021/08/12 00:20:08;;;;;;;10.80;2.75;;;;;;;;;;5055229;28;20461;-76
2021/08/12 00:22:33;;;;;;;10.38;2.40;;;;;;;;;;5055078;28;20096;-75
2021/08/12 00:24:58;;;;;;;9.35;2.70;;;;;;;;;;5055117;28;20408;-76
2021/08/12 00:27:24;;;;;;;11.80;2.70;;;;;;;;;;5054914;28;20452;-75
2021/08/12 00:29:49;;;;;;;10.88;2.63;;;;;;;;;;5054939;28;20039;-76
2021/08/12 00:32:15;;;;;;;10.60;3.17;;;;;;;;;;5053789;28;20029;-75
2021/08/12 00:34:40;;;;;;;10.45;2.42;;;;;;;;;;5055430;28;20024;-75
2021/08/12 00:37:05;;;;;;;9.05;3.30;;;;;;;;;;5036274;28;20035;-75
2021/08/12 00:39:31;;;;;;;11.80;3.28;;;;;;;;;;5041873;28;20067;-75
2021/08/12 00:41:57;;;;;;;12.95;3.25;;;;;;;;;;5036781;28;20449;-75
2021/08/12 00:44:22;;;;;;;19.20;4.40;;;;;;;;;;5055105;28;20453;-75
2021/08/12 00:46:47;;;;;;;11.77;3.30;;;;;;;;;;5055031;28;20091;-75
2021/08/12 00:49:13;;;;;;;15.63;3.58;;;;;;;;;;5054490;28;20024;-76
2021/08/12 00:51:39;;;;;;;11.38;3.30;;;;;;;;;;5054915;28;20025;-75
2021/08/12 00:54:04;;;;;;;14.88;4.15;;;;;;;;;;5055023;28;20036;-76
2021/08/12 00:56:29;;;;;;;14.20;3.92;;;;;;;;;;5051003;28;20022;-76
2021/08/12 00:58:55;;;;;;;17.52;4.22;;;;;;;;;;5035302;28;20029;-76
2021/08/12 01:01:20;;;;;;;13.38;3.85;;;;;;;;;;5043832;28;20028;-75
2021/08/12 01:03:45;;;;;;;12.05;4.30;;;;;;;;;;5053500;28;20028;-75
2021/08/12 01:06:11;;;;;;;19.13;5.55;;;;;;;;;;5054677;28;20458;-75
2021/08/12 01:08:52;;;;;;;19.50;4.97;;;;;;;;;;5054426;28;20040;-75
2021/08/12 01:11:20;;;;;;;26.08;5.40;;;;;;;;;;5036898;28;20033;-76
2021/08/12 01:13:46;;;;;;;25.60;5.68;;;;;;;;;;5054204;28;20040;-75
2021/08/12 01:16:13;;;;;;;19.25;5.32;;;;;;;;;;5054283;28;20024;-75
2021/08/12 01:18:58;;;;;;;19.30;5.32;;;;;;;;;;5054324;28;20036;-75
2021/08/12 01:21:36;;;;;;;21.13;5.47;;;;;;;;;;5053335;28;20512;-75
2021/08/12 01:24:04;;;;;;;24.15;5.78;;;;;;;;;;5054313;28;20154;-75
2021/08/12 01:26:31;;;;;;;19.65;5.25;;;;;;;;;;5054328;28;20086;-75
2021/08/12 01:28:58;;;;;;;28.73;5.72;;;;;;;;;;5054492;28;20017;-75
2021/08/12 01:31:42;;;;;;;26.83;5.40;;;;;;;;;;5054110;28;20098;-76
2021/08/12 01:34:09;;;;;;;24.00;5.15;;;;;;;;;;5053890;28;20473;-76
2021/08/12 01:36:36;;;;;;;19.55;5.38;;;;;;;;;;5053848;28;20086;-75
2021/08/12 01:39:03;;;;;;;20.55;6.40;;;;;;;;;;5053071;28;20081;-76
2021/08/12 01:41:29;;;;;;;35.40;5.93;;;;;;;;;;5053289;28;20025;-75
2021/08/12 01:43:56;;;;;;;18.13;4.97;;;;;;;;;;5053472;28;20054;-75
2021/08/12 01:46:23;;;;;;;24.98;5.53;;;;;;;;;;5053164;28;20037;-75
2021/08/12 01:48:48;;;;;;;23.00;5.25;;;;;;;;;;5053130;28;20066;-75
2021/08/12 01:51:14;;;;;;;26.23;6.90;;;;;;;;;;5053428;28;20121;-75
2021/08/12 01:53:40;;;;;;;23.90;5.57;;;;;;;;;;5053260;28;20126;-75
2021/08/12 01:56:06;;;;;;;21.55;5.63;;;;;;;;;;5053071;28;20024;-75
2021/08/12 01:58:32;;;;;;;23.33;5.78;;;;;;;;;;5053324;28;20082;-75
2021/08/12 02:00:58;;;;;;;24.48;5.95;;;;;;;;;;5052987;28;20526;-76
2021/08/12 02:03:24;;;;;;;27.50;5.43;;;;;;;;;;5053254;28;20025;-75
2021/08/12 02:05:51;;;;;;;35.42;5.55;;;;;;;;;;5053440;28;20033;-75
2021/08/12 02:08:19;;;;;;;17.15;4.80;;;;;;;;;;5053118;28;20108;-75
2021/08/12 02:10:45;;;;;;;20.38;5.07;;;;;;;;;;5052927;28;20377;-76
2021/08/12 02:13:10;;;;;;;26.60;5.18;;;;;;;;;;5052373;28;20025;-75
2021/08/12 02:15:36;;;;;;;26.13;4.80;;;;;;;;;;5052807;28;20392;-75
2021/08/12 02:18:01;;;;;;;17.15;4.93;;;;;;;;;;5053192;28;20411;-75
2021/08/12 02:20:26;;;;;;;20.88;5.03;;;;;;;;;;5053108;28;20529;-75
2021/08/12 02:23:00;;;;;;;28.48;5.32;;;;;;;;;;5052971;28;20173;-75
2021/08/12 02:25:33;;;;;;;22.08;5.03;;;;;;;;;;5052751;28;20520;-75
2021/08/12 02:28:00;;;;;;;20.08;4.60;;;;;;;;;;5034957;28;20443;-75
2021/08/12 02:30:25;;;;;;;19.88;4.47;;;;;;;;;;5052754;28;20053;-75
2021/08/12 02:32:51;;;;;;;18.88;5.00;;;;;;;;;;5052842;28;20150;-75
2021/08/12 02:35:17;;;;;;;18.83;4.57;;;;;;;;;;5052848;28;20021;-76
2021/08/12 02:37:43;;;;;;;23.83;4.72;;;;;;;;;;5052838;28;20043;-75
2021/08/12 02:40:09;;;;;;;15.40;4.53;;;;;;;;;;5052676;28;20025;-75
2021/08/12 02:42:37;;;;;;;25.10;5.88;;;;;;;;;;5052447;28;20051;-75
2021/08/12 02:45:03;;;;;;;19.27;5.07;;;;;;;;;;5052815;28;20072;-75
2021/08/12 02:47:30;;;;;;;17.83;4.65;;;;;;;;;;5052913;28;20068;-75
2021/08/12 02:49:57;;;;;;;29.17;5.43;;;;;;;;;;5052898;28;20036;-75
2021/08/12 02:52:23;;;;;;;20.25;5.10;;;;;;;;;;5052401;28;20035;-75
2021/08/12 02:54:49;;;;;;;49.33;5.32;;;;;;;;;;5052337;28;20465;-75
2021/08/12 02:57:15;;;;;;;137.13;6.97;;;;;;;;;;5052948;28;20027;-75
2021/08/12 02:59:41;;;;;;;52.85;6.55;;;;;;;;;;5052923;28;20029;-75
2021/08/12 03:02:07;;;;;;;30.50;5.03;;;;;;;;;;5052849;28;20039;-75
2021/08/12 03:04:32;;;;;;;17.88;5.70;;;;;;;;;;5052371;28;20526;-75
2021/08/12 03:06:58;;;;;;;13.35;4.57;;;;;;;;;;5052475;28;20037;-76
2021/08/12 03:09:27;;;;;;;14.95;4.45;;;;;;;;;;5052196;28;20021;-75
2021/08/12 03:11:53;;;;;;;21.88;4.57;;;;;;;;;;5052066;28;20063;-75
2021/08/12 03:14:19;;;;;;;20.00;4.32;;;;;;;;;;5052813;28;20033;-75
2021/08/12 03:16:45;;;;;;;30.98;6.88;;;;;;;;;;5052405;28;20468;-76
2021/08/12 03:19:10;;;;;;;31.90;5.93;;;;;;;;;;5051703;28;20483;-75
2021/08/12 03:21:35;;;;;;;36.55;5.68;;;;;;;;;;5052432;28;20032;-76
2021/08/12 03:24:04;;;;;;;21.88;4.70;;;;;;;;;;5052308;28;20025;-75
2021/08/12 03:26:29;;;;;;;24.55;4.70;;;;;;;;;;5037101;28;20033;-75
2021/08/12 03:28:54;;;;;;;32.50;5.63;;;;;;;;;;5056361;28;20043;-75
2021/08/12 03:31:20;;;;;;;19.65;4.28;;;;;;;;;;5055733;28;20055;-74
2021/08/12 03:33:45;;;;;;;24.20;6.80;;;;;;;;;;5056095;28;20033;-75
2021/08/12 03:36:10;;;;;;;22.98;4.85;;;;;;;;;;5055949;28;20112;-75
2021/08/12 03:38:36;;;;;;;34.33;5.65;;;;;;;;;;5055710;28;20064;-76
2021/08/12 03:41:01;;;;;;;20.05;4.63;;;;;;;;;;5055613;28;20024;-75
2021/08/12 03:43:27;;;;;;;26.02;4.97;;;;;;;;;;5055434;28;20515;-75
2021/08/12 03:45:52;;;;;;;146.95;7.28;;;;;;;;;;5055941;28;20087;-75
2021/08/12 03:48:17;;;;;;;98.82;6.93;;;;;;;;;;5055638;28;20175;-75
2021/08/12 03:50:43;;;;;;;41.25;5.97;;;;;;;;;;5055881;28;20025;-75
2021/08/12 03:53:08;;;;;;;38.47;5.47;;;;;;;;;;5055097;28;20056;-75
2021/08/12 03:55:33;;;;;;;19.65;4.55;;;;;;;;;;5055734;28;20041;-75
2021/08/12 03:57:59;;;;;;;18.30;3.92;;;;;;;;;;5055689;28;20045;-75
2021/08/12 04:00:24;;;;;;;77.03;5.93;;;;;;;;;;5055526;28;20087;-75
2021/08/12 04:02:49;;;;;;;31.27;4.18;;;;;;;;;;5056069;28;20540;-75
2021/08/12 04:05:15;;;;;;;73.70;5.32;;;;;;;;;;5056217;28;20041;-75
2021/08/12 04:07:40;;;;;;;48.85;5.07;;;;;;;;;;5055939;28;20017;-75
2021/08/12 04:10:06;;;;;;;65.85;5.03;;;;;;;;;;5055042;28;20036;-75
2021/08/12 04:12:31;;;;;;;71.00;4.82;;;;;;;;;;5054186;28;20029;-75
2021/08/12 04:14:57;;;;;;;30.70;3.88;;;;;;;;;;5055757;28;20024;-75
2021/08/12 04:17:23;;;;;;;16.27;3.47;;;;;;;;;;5055329;28;20037;-75
2021/08/12 04:19:48;;;;;;;14.70;4.03;;;;;;;;;;5055315;28;20078;-77
2021/08/12 04:22:13;;;;;;;26.10;3.67;;;;;;;;;;5055608;28;20066;-75
2021/08/12 04:24:39;;;;;;;15.02;3.83;;;;;;;;;;5055344;28;20033;-76
2021/08/12 04:27:04;;;;;;;17.77;4.57;;;;;;;;;;5055487;28;20387;-75
2021/08/12 04:29:30;;;;;;;19.80;4.28;;;;;;;;;;5055560;28;20024;-75
2021/08/12 04:31:55;;;;;;;15.93;3.90;;;;;;;;;;5055303;28;20037;-75
2021/08/12 04:34:21;;;;;;;20.70;4.03;;;;;;;;;;5054756;28;20044;-75
2021/08/12 04:36:46;;;;;;;19.95;4.05;;;;;;;;;;5054758;28;20037;-75
2021/08/12 04:39:11;;;;;;;21.08;3.83;;;;;;;;;;5039477;28;20025;-76
2021/08/12 04:41:36;;;;;;;17.30;4.80;;;;;;;;;;5036971;28;20047;-75
2021/08/12 04:44:02;;;;;;;21.30;4.32;;;;;;;;;;5054757;28;20029;-76
2021/08/12 04:46:27;;;;;;;18.52;4.43;;;;;;;;;;5054512;28;20029;-76
2021/08/12 04:48:53;;;;;;;17.38;4.65;;;;;;;;;;5055206;28;20033;-75
2021/08/12 04:51:18;;;;;;;17.95;4.30;;;;;;;;;;5054442;28;20025;-75
2021/08/12 04:53:43;;;;;;;15.77;4.22;;;;;;;;;;5054369;28;20040;-75
2021/08/12 04:56:09;;;;;;;40.88;5.00;;;;;;;;;;5054606;28;20111;-75
2021/08/12 04:58:34;;;;;;;42.30;5.00;;;;;;;;;;5053905;28;20101;-76
2021/08/12 05:00:59;;;;;;;46.85;4.85;;;;;;;;;;5054444;28;20032;-75
2021/08/12 05:03:24;;;;;;;56.45;5.63;;;;;;;;;;5054288;28;20052;-75
2021/08/12 05:05:59;;;;;;;30.08;5.47;;;;;;;;;;5054609;28;20025;-76
2021/08/12 05:08:24;;;;;;;27.35;5.07;;;;;;;;;;5054598;28;20029;-75
2021/08/12 05:10:50;;;;;;;56.92;5.68;;;;;;;;;;5054327;28;20036;-77
2021/08/12 05:13:15;;;;;;;99.97;6.40;;;;;;;;;;5053634;28;20099;-75
2021/08/12 05:15:40;;;;;;;182.73;8.23;;;;;;;;;;5054497;28;20116;-75
2021/08/12 05:18:05;;;;;;;122.53;5.70;;;;;;;;;;5053453;28;20075;-75
2021/08/12 05:20:31;;;;;;;184.77;6.35;;;;;;;;;;5054362;28;20056;-75
2021/08/12 05:22:56;;;;;;;72.50;5.18;;;;;;;;;;5053819;28;20116;-75
2021/08/12 05:25:21;;;;;;;128.32;5.80;;;;;;;;;;5054250;28;20037;-75
2021/08/12 05:27:47;;;;;;;92.43;5.57;;;;;;;;;;5053738;28;20025;-75
2021/08/12 05:30:12;;;;;;;58.95;3.85;;;;;;;;;;5053780;28;20047;-75
2021/08/12 05:32:37;;;;;;;80.07;5.03;;;;;;;;;;5053794;28;20055;-76
2021/08/12 05:35:03;;;;;;;105.13;5.22;;;;;;;;;;5054248;28;20092;-75
2021/08/12 05:37:28;;;;;;;51.28;4.47;;;;;;;;;;5054061;28;20052;-74
2021/08/12 05:39:54;;;;;;;86.35;5.47;;;;;;;;;;5054532;28;20032;-76
2021/08/12 05:42:19;;;;;;;42.58;3.50;;;;;;;;;;5053465;28;20432;-75
2021/08/12 05:44:44;;;;;;;54.50;3.30;;;;;;;;;;5034265;28;20104;-75
2021/08/12 05:47:10;;;;;;;67.93;7.78;;;;;;;;;;5052793;28;20028;-75
2021/08/12 05:49:35;;;;;;;15.45;3.60;;;;;;;;;;5053093;28;20453;-75
2021/08/12 05:52:00;;;;;;;9.40;2.83;;;;;;;;;;5052979;28;20032;-75
2021/08/12 05:54:25;;;;;;;58.38;5.07;;;;;;;;;;5053240;28;20029;-75
2021/08/12 05:56:51;;;;;;;27.40;3.65;;;;;;;;;;5053069;28;20112;-76
2021/08/12 05:59:16;;;;;;;28.75;4.13;;;;;;;;;;5053505;28;20112;-75
2021/08/12 06:01:41;;;;;;;20.60;3.40;;;;;;;;;;5053391;28;20074;-76
2021/08/12 06:04:07;;;;;;;17.38;3.15;;;;;;;;;;5052880;28;20373;-75
2021/08/12 06:06:32;;;;;;;14.43;3.13;;;;;;;;;;5053755;28;20033;-75
2021/08/12 06:08:57;;;;;;;17.55;2.97;;;;;;;;;;5035725;28;20037;-75
2021/08/12 06:11:23;;;;;;;32.30;3.40;;;;;;;;;;5053690;28;20461;-75
2021/08/12 06:13:48;;;;;;;15.40;3.80;;;;;;;;;;5052858;28;20075;-76
2021/08/12 06:16:13;;;;;;;10.88;3.30;;;;;;;;;;5053427;28;20492;-75
2021/08/12 06:18:39;;;;;;;15.15;3.58;;;;;;;;;;5052868;28;20028;-76
2021/08/12 06:21:04;;;;;;;10.25;3.38;;;;;;;;;;5053175;28;20480;-76
2021/08/12 06:23:29;;;;;;;16.65;3.40;;;;;;;;;;5053021;28;20117;-76
2021/08/12 06:25:55;;;;;;;15.18;3.25;;;;;;;;;;5052696;28;20029;-75
2021/08/12 06:28:21;;;;;;;9.07;2.92;;;;;;;;;;5053488;28;20029;-76
2021/08/12 06:30:46;;;;;;;28.70;3.20;;;;;;;;;;5053155;28;20053;-76
2021/08/12 06:33:11;;;;;;;136.68;14.52;;;;;;;;;;5052773;28;20453;-76
2021/08/12 06:35:37;;;;;;;15.48;3.90;;;;;;;;;;5053304;28;20025;-76
2021/08/12 06:38:03;;;;;;;3.47;2.03;;;;;;;;;;5052569;28;20047;-76
2021/08/12 06:40:28;;;;;;;6.65;1.60;;;;;;;;;;5053280;28;20024;-76
2021/08/12 06:42:55;;;;;;;4.65;1.55;;;;;;;;;;5052410;28;20029;-76
2021/08/12 06:45:21;;;;;;;5.95;1.58;;;;;;;;;;5052775;28;20028;-77
2021/08/12 06:47:46;;;;;;;4.03;1.50;;;;;;;;;;5052947;28;20358;-76
2021/08/12 06:50:13;;;;;;;8.93;1.55;;;;;;;;;;5052861;28;20401;-77
2021/08/12 06:52:38;;;;;;;3.55;1.77;;;;;;;;;;5052986;28;20032;-76
2021/08/12 06:55:04;;;;;;;6.90;1.63;;;;;;;;;;5053152;28;20075;-77
2021/08/12 06:57:29;;;;;;;3.40;1.60;;;;;;;;;;5052458;28;20493;-76
2021/08/12 06:59:54;;;;;;;4.20;1.98;;;;;;;;;;5054107;28;20060;-78
2021/08/12 07:02:20;;;;;;;3.78;2.10;;;;;;;;;;5056586;28;20025;-74
2021/08/12 07:04:45;;;;;;;3.97;2.20;;;;;;;;;;5057098;28;20119;-74
2021/08/12 07:07:11;;;;;;;3.53;2.20;;;;;;;;;;5039008;28;20404;-74
2021/08/12 07:09:37;;;;;;;3.05;1.83;;;;;;;;;;5055749;28;20017;-74
2021/08/12 07:12:03;;;;;;;6.45;1.73;;;;;;;;;;5056095;28;20089;-76
2021/08/12 07:14:28;;;;;;;5.20;2.20;;;;;;;;;;5055958;28;20033;-75
2021/08/12 07:16:53;;;;;;;5.45;1.95;;;;;;;;;;5056570;28;20028;-75
2021/08/12 07:19:18;;;;;;;6.70;2.50;;;;;;;;;;5056670;28;20382;-75
2021/08/12 07:21:44;;;;;;;4.13;1.83;;;;;;;;;;5038488;28;20029;-75
2021/08/12 07:24:09;;;;;;;11.82;2.95;;;;;;;;;;5055684;28;20031;-75
2021/08/12 07:26:35;;;;;;;5.53;2.00;;;;;;;;;;5056573;28;20120;-75
2021/08/12 07:29:01;;;;;;;9.30;2.55;;;;;;;;;;5056181;28;20029;-75
2021/08/12 07:31:26;;;;;;;4.75;2.13;;;;;;;;;;5055812;28;20056;-75
2021/08/12 07:33:51;;;;;;;9.55;2.42;;;;;;;;;;5055896;28;20400;-76
2021/08/12 07:36:17;;;;;;;8.30;2.85;;;;;;;;;;5056387;28;20087;-76
2021/08/12 07:38:42;;;;;;;6.40;2.42;;;;;;;;;;5056178;28;20021;-76
2021/08/12 07:41:08;;;;;;;8.65;2.53;;;;;;;;;;5056198;28;20028;-77
2021/08/12 07:43:33;;;;;;;7.43;2.50;;;;;;;;;;5055812;28;20040;-76
2021/08/12 07:45:59;;;;;;;8.25;2.20;;;;;;;;;;5055689;28;20036;-77
2021/08/12 07:48:24;;;;;;;12.93;2.78;;;;;;;;;;5056203;28;20472;-77
2021/08/12 07:50:49;;;;;;;9.95;2.33;;;;;;;;;;5056154;28;20112;-76
2021/08/12 07:53:15;;;;;;;8.65;2.60;;;;;;;;;;5054802;28;20112;-76
2021/08/12 07:55:40;;;;;;;16.27;3.33;;;;;;;;;;5055487;28;20029;-76
2021/08/12 07:58:05;;;;;;;12.65;2.67;;;;;;;;;;5054916;28;20187;-77
2021/08/12 08:00:30;;;;;;;11.55;3.17;;;;;;;;;;5055694;28;20028;-76
2021/08/12 08:02:56;;;;;;;11.68;2.92;;;;;;;;;;5056229;28;20036;-77
2021/08/12 08:05:22;;;;;;;9.88;2.55;;;;;;;;;;5055848;28;20032;-76
2021/08/12 08:07:49;;;;;;;8.68;2.75;;;;;;;;;;5054914;28;20527;-76
2021/08/12 08:10:15;;;;;;;11.98;2.35;;;;;;;;;;5055517;28;20056;-75
2021/08/12 08:12:42;;;;;;;10.82;2.53;;;;;;;;;;5054481;28;20394;-76
2021/08/12 08:15:07;;;;;;;9.85;2.03;;;;;;;;;;5055199;28;20028;-75
2021/08/12 08:17:33;;;;;;;9.20;2.35;;;;;;;;;;5055349;28;20404;-75
2021/08/12 08:19:58;;;;;;;13.07;2.80;;;;;;;;;;5055125;28;20106;-76
2021/08/12 08:22:24;;;;;;;10.70;2.42;;;;;;;;;;5054888;28;20377;-76
2021/08/12 08:24:49;;;;;;;11.63;2.88;;;;;;;;;;5044851;28;20079;-76
2021/08/12 08:27:14;;;;;;;9.48;2.55;;;;;;;;;;5055463;28;20068;-76
2021/08/12 08:29:40;;;;;;;12.85;2.63;;;;;;;;;;5055280;28;20472;-76
2021/08/12 08:32:05;;;;;;;11.77;2.72;;;;;;;;;;5054701;28;20028;-77
2021/08/12 08:34:30;;;;;;;8.57;2.45;;;;;;;;;;5055471;28;20116;-76
2021/08/12 08:36:56;;;;;;;12.27;2.13;;;;;;;;;;5044738;28;20025;-77
2021/08/12 08:39:21;;;;;;;10.13;2.53;;;;;;;;;;5043754;28;20741;-78
2021/08/12 08:41:46;;;;;;;7.10;2.00;;;;;;;;;;5053764;28;20044;-77
2021/08/12 08:44:12;;;;;;;9.70;2.50;;;;;;;;;;5052065;28;20029;-77
2021/08/12 08:46:37;;;;;;;11.38;2.25;;;;;;;;;;5053321;28;20542;-77
2021/08/12 08:49:04;;;;;;;12.70;2.50;;;;;;;;;;5054097;28;20369;-77
2021/08/12 08:51:33;;;;;;;11.50;2.40;;;;;;;;;;5052051;28;20476;-76
2021/08/12 08:53:59;;;;;;;10.02;1.95;;;;;;;;;;5052982;28;20075;-77
2021/08/12 08:56:24;;;;;;;10.20;2.33;;;;;;;;;;5053226;28;20028;-76
2021/08/12 08:58:50;;;;;;;9.35;2.10;;;;;;;;;;5053146;28;20082;-77
2021/08/12 09:01:15;;;;;;;9.98;2.55;;;;;;;;;;5052123;28;20102;-75
2021/08/12 09:03:41;;;;;;;10.57;2.75;;;;;;;;;;5051284;28;20029;-75
2021/08/12 09:06:06;;;;;;;11.80;2.53;;;;;;;;;;5053149;28;20445;-76
2021/08/12 09:08:31;;;;;;;8.82;2.15;;;;;;;;;;5053432;28;20047;-75
2021/08/12 09:10:57;;;;;;;8.90;1.83;;;;;;;;;;5053237;28;20036;-75
2021/08/12 09:13:22;;;;;;;9.45;2.17;;;;;;;;;;5052008;28;20049;-76
2021/08/12 09:15:47;;;;;;;6.28;1.65;;;;;;;;;;5051514;28;20461;-75
2021/08/12 09:18:23;;;;;;;9.32;1.95;;;;;;;;;;5051975;28;20033;-76
2021/08/12 09:20:50;;;;;;;9.30;2.63;;;;;;;;;;5050330;28;20108;-77
2021/08/12 09:23:19;;;;;;;12.30;2.03;;;;;;;;;;5047438;28;20075;-77
2021/08/12 09:25:49;;;;;;;10.65;1.90;;;;;;;;;;5047732;28;20402;-77
2021/08/12 09:28:20;;;;;;;8.82;2.10;;;;;;;;;;5048872;28;20036;-76
2021/08/12 09:30:58;;;;;;;7.88;2.75;;;;;;;;;;5051212;28;20049;-77
2021/08/12 09:33:23;;;;;;;7.60;2.30;;;;;;;;;;5028049;28;20132;-77
2021/08/12 09:35:49;;;;;;;7.45;2.10;;;;;;;;;;5044540;28;20111;-78
2021/08/12 09:38:14;;;;;;;10.45;2.20;;;;;;;;;;5049434;28;20515;-76
2021/08/12 09:40:40;;;;;;;7.57;2.10;;;;;;;;;;5049878;28;20060;-76
2021/08/12 09:43:06;;;;;;;7.32;2.25;;;;;;;;;;5050713;28;20035;-76
2021/08/12 09:45:32;;;;;;;9.82;2.97;;;;;;;;;;5050967;28;20025;-77
2021/08/12 09:48:09;;;;;;;9.65;2.03;;;;;;;;;;5050286;28;20044;-77
2021/08/12 09:50:35;;;;;;;9.45;2.30;;;;;;;;;;5046453;28;20064;-77
2021/08/12 09:53:00;;;;;;;16.55;2.90;;;;;;;;;;5047895;28;20029;-78
2021/08/12 09:55:26;;;;;;;10.00;2.60;;;;;;;;;;5049190;28;20112;-76
2021/08/12 09:58:09;;;;;;;12.00;2.83;;;;;;;;;;5048277;28;20084;-77
2021/08/12 10:00:44;;;;;;;10.75;2.38;;;;;;;;;;5049339;28;20043;-76
2021/08/12 10:03:30;;;;;;;10.55;2.55;;;;;;;;;;5049314;28;20036;-77
2021/08/12 10:05:56;;;;;;;11.25;2.83;;;;;;;;;;5049391;28;20060;-76
2021/08/12 10:08:29;;;;;;;9.90;2.30;;;;;;;;;;5048745;28;20056;-77
2021/08/12 10:10:55;;;;;;;7.75;2.50;;;;;;;;;;5048889;28;20067;-76
2021/08/12 10:13:21;;;;;;;8.48;2.30;;;;;;;;;;5048860;28;20449;-76
2021/08/12 10:15:49;;;;;;;6.55;2.17;;;;;;;;;;5049386;28;20021;-76
2021/08/12 10:18:16;;;;;;;5.68;2.03;;;;;;;;;;5048589;28;20033;-78
2021/08/12 10:20:43;;;;;;;10.88;2.45;;;;;;;;;;5047507;28;20060;-77
2021/08/12 10:23:09;;;;;;;12.90;2.17;;;;;;;;;;5048691;28;20013;-76
2021/08/12 10:25:34;;;;;;;7.43;2.03;;;;;;;;;;5038577;28;20032;-77
2021/08/12 10:28:03;;;;;;;9.70;2.30;;;;;;;;;;5043110;28;20104;-80
2021/08/12 10:30:29;;;;;;;6.45;1.92;;;;;;;;;;5050252;28;20401;-76
2021/08/12 10:32:56;;;;;;;6.18;2.63;;;;;;;;;;5049025;28;20025;-76
2021/08/12 10:35:25;;;;;;;8.15;1.92;;;;;;;;;;5050028;28;20075;-77
2021/08/12 10:37:54;;;;;;;10.15;2.20;;;;;;;;;;5049626;28;20017;-77
2021/08/12 10:40:20;;;;;;;6.00;2.03;;;;;;;;;;5049789;28;20116;-76
2021/08/12 10:42:47;;;;;;;9.52;2.00;;;;;;;;;;5048739;28;20113;-76
2021/08/12 10:45:13;;;;;;;7.50;2.20;;;;;;;;;;5049068;28;20036;-75
2021/08/12 10:47:41;;;;;;;10.55;2.42;;;;;;;;;;5049881;28;20037;-78
2021/08/12 10:50:22;;;;;;;6.50;1.85;;;;;;;;;;5048799;28;20461;-76
2021/08/12 10:53:12;;;;;;;9.07;2.28;;;;;;;;;;5045398;28;20029;-76
2021/08/12 10:55:38;;;;;;;7.90;2.10;;;;;;;;;;5044669;28;20033;-76
2021/08/12 11:00:49;;;;;;;9.10;2.30;;;;;;;;;;5048857;28;20040;-77
2021/08/12 11:03:28;;;;;;;10.00;2.83;;;;;;;;;;5049545;28;20029;-76
2021/08/12 11:06:03;;;;;;;8.75;2.38;;;;;;;;;;5049570;28;20044;-77
2021/08/12 11:08:47;;;;;;;5.90;2.08;;;;;;;;;;5049288;28;20133;-77
2021/08/12 11:11:13;;;;;;;12.45;2.17;;;;;;;;;;5048701;28;20040;-77
2021/08/12 11:13:38;;;;;;;4.85;1.75;;;;;;;;;;5048328;28;20021;-76
2021/08/12 11:16:03;;;;;;;4.97;1.50;;;;;;;;;;5048565;28;20033;-77
2021/08/12 11:18:49;;;;;;;3.70;1.10;;;;;;;;;;5048419;28;20037;-76
2021/08/12 11:21:29;;;;;;;5.10;1.65;;;;;;;;;;5039548;28;20021;-76
2021/08/12 11:23:55;;;;;;;4.15;1.20;;;;;;;;;;5046795;28;20021;-75
2021/08/12 11:26:20;;;;;;;5.70;1.45;;;;;;;;;;5047971;28;20022;-75
2021/08/12 11:28:45;;;;;;;4.10;1.88;;;;;;;;;;5048020;28;20044;-76
2021/08/12 11:31:20;;;;;;;4.22;1.52;;;;;;;;;;5028076;28;20115;-77
2021/08/12 11:33:48;;;;;;;5.90;1.60;;;;;;;;;;5046432;28;20017;-76
2021/08/12 11:36:19;;;;;;;4.60;1.48;;;;;;;;;;5048144;28;20036;-75
2021/08/12 11:38:56;;;;;;;5.63;1.52;;;;;;;;;;5046961;28;20056;-76
2021/08/12 11:41:22;;;;;;;6.00;1.77;;;;;;;;;;5045052;28;20424;-76
2021/08/12 11:43:48;;;;;;;4.57;1.73;;;;;;;;;;5043839;28;20025;-76
2021/08/12 11:46:15;;;;;;;3.25;1.42;;;;;;;;;;5046167;28;20107;-76
2021/08/12 11:48:40;;;;;;;5.18;1.50;;;;;;;;;;5052008;28;20045;-75
2021/08/12 11:51:05;;;;;;;7.65;1.88;;;;;;;;;;5050893;28;20472;-77
2021/08/12 11:53:42;;;;;;;3.88;1.80;;;;;;;;;;5048145;28;20029;-76
2021/08/12 11:56:14;;;;;;;7.75;1.80;;;;;;;;;;5046869;28;20026;-76
2021/08/12 11:58:47;;;;;;;5.38;1.73;;;;;;;;;;5051959;28;20113;-76
2021/08/12 12:01:13;;;;;;;6.07;1.80;;;;;;;;;;5047866;28;20033;-76
2021/08/12 12:03:39;;;;;;;3.80;1.42;;;;;;;;;;5045488;28;20061;-77
2021/08/12 12:06:04;;;;;;;3.70;1.52;;;;;;;;;;5051618;28;20420;-75
2021/08/12 12:08:29;;;;;;;3.58;1.55;;;;;;;;;;5051729;28;20044;-75
2021/08/12 12:11:05;;;;;;;8.82;2.08;;;;;;;;;;5051897;28;20075;-76
2021/08/12 12:13:30;;;;;;;5.57;1.92;;;;;;;;;;5051823;28;20033;-75
2021/08/12 12:15:56;;;;;;;7.00;1.50;;;;;;;;;;5051832;28;20530;-75
2021/08/12 12:18:32;;;;;;;3.67;1.70;;;;;;;;;;5052038;28;20033;-78
2021/08/12 12:21:11;;;;;;;5.90;2.00;;;;;;;;;;5048737;28;20079;-77
2021/08/12 12:23:37;;;;;;;6.68;1.60;;;;;;;;;;5049844;28;20112;-77
2021/08/12 12:26:03;;;;;;;3.63;1.40;;;;;;;;;;5051457;28;20075;-76
2021/08/12 12:28:32;;;;;;;5.43;1.30;;;;;;;;;;5051614;28;20072;-77
2021/08/12 12:30:57;;;;;;;8.35;1.70;;;;;;;;;;5051572;28;20067;-76
2021/08/12 12:33:25;;;;;;;6.13;1.85;;;;;;;;;;5049535;28;20477;-76
2021/08/12 12:35:54;;;;;;;2.20;1.35;;;;;;;;;;5051346;28;20598;-76
2021/08/12 12:38:26;;;;;;;4.05;1.77;;;;;;;;;;5051380;28;20025;-76
2021/08/12 12:40:53;;;;;;;9.85;2.35;;;;;;;;;;5050867;28;20067;-76
2021/08/12 12:43:18;;;;;;;4.30;1.95;;;;;;;;;;5050943;28;20059;-76
2021/08/12 12:45:51;;;;;;;3.97;1.92;;;;;;;;;;5051175;28;20025;-75
2021/08/12 12:48:26;;;;;;;4.78;1.55;;;;;;;;;;5051131;28;20083;-76
2021/08/12 12:50:52;;;;;;;7.78;3.78;;;;;;;;;;5050784;28;20047;-76
2021/08/12 12:53:30;;;;;;;7.63;3.58;;;;;;;;;;5050027;28;20021;-76
2021/08/12 12:55:56;;;;;;;19.80;9.85;;;;;;;;;;5051181;28;20061;-76
2021/08/12 12:58:26;;;;;;;6.35;2.60;;;;;;;;;;5047389;28;20083;-76
2021/08/12 13:01:07;;;;;;;3.38;2.00;;;;;;;;;;5050965;28;20021;-76
2021/08/12 13:03:34;;;;;;;3.75;1.10;;;;;;;;;;5016797;28;20037;-77
2021/08/12 13:06:01;;;;;;;4.95;2.95;;;;;;;;;;5044285;28;20060;-75
2021/08/12 13:08:34;;;;;;;9.88;7.63;;;;;;;;;;5050591;28;20091;-77
2021/08/12 13:11:08;;;;;;;5.38;2.65;;;;;;;;;;5050820;28;20048;-76
2021/08/12 13:13:36;;;;;;;7.60;4.07;;;;;;;;;;5050646;28;20113;-77
2021/08/12 13:16:01;;;;;;;5.32;3.00;;;;;;;;;;5050243;28;20497;-76
2021/08/12 13:18:46;;;;;;;3.80;1.70;;;;;;;;;;5049629;28;20071;-76
2021/08/12 13:21:32;;;;;;;6.70;2.78;;;;;;;;;;5050804;28;20036;-76
2021/08/12 13:23:59;;;;;;;4.82;2.50;;;;;;;;;;5049623;28;20102;-77
2021/08/12 13:26:27;;;;;;;6.68;3.88;;;;;;;;;;5050159;28;20521;-76
2021/08/12 13:29:02;;;;;;;6.28;3.88;;;;;;;;;;5050250;28;20380;-76
2021/08/12 13:31:34;;;;;;;6.68;3.70;;;;;;;;;;5050940;28;20056;-76
2021/08/12 13:33:59;;;;;;;9.35;4.35;;;;;;;;;;5050009;28;20041;-77
2021/08/12 13:36:24;;;;;;;8.23;3.58;;;;;;;;;;5050316;28;20021;-76
2021/08/12 13:38:49;;;;;;;9.02;5.22;;;;;;;;;;5045329;28;20128;-76
2021/08/12 13:41:15;;;;;;;5.05;2.65;;;;;;;;;;5049385;28;20033;-77
2021/08/12 13:43:40;;;;;;;4.22;2.45;;;;;;;;;;5049400;28;20381;-76
2021/08/12 13:46:05;;;;;;;5.30;2.80;;;;;;;;;;5050275;28;20028;-76
2021/08/12 13:48:30;;;;;;;6.75;3.28;;;;;;;;;;5049532;28;20493;-76
2021/08/12 13:50:56;;;;;;;2.55;1.42;;;;;;;;;;5049480;28;20100;-75
2021/08/12 13:53:21;;;;;;;3.78;2.03;;;;;;;;;;5035637;28;20116;-77
2021/08/12 13:55:47;;;;;;;4.68;2.15;;;;;;;;;;5049450;28;20098;-77
2021/08/12 13:58:12;;;;;;;7.47;2.35;;;;;;;;;;5048844;28;20032;-78
2021/08/12 14:00:38;;;;;;;8.85;3.08;;;;;;;;;;5048867;28;20021;-77
2021/08/12 14:03:05;;;;;;;4.38;1.42;;;;;;;;;;5048589;28;20397;-76
2021/08/12 14:05:30;;;;;;;3.15;1.55;;;;;;;;;;5049546;28;20017;-75
2021/08/12 14:07:55;;;;;;;4.50;2.10;;;;;;;;;;5044087;28;20052;-75
2021/08/12 14:10:21;;;;;;;3.63;1.58;;;;;;;;;;5048575;28;20175;-78
2021/08/12 14:12:47;;;;;;;2.95;1.48;;;;;;;;;;5049806;28;20021;-75
2021/08/12 14:15:12;;;;;;;2.35;1.23;;;;;;;;;;5048844;28;20552;-75
2021/08/12 14:17:37;;;;;;;2.13;1.30;;;;;;;;;;5049650;28;20037;-76
2021/08/12 14:20:03;;;;;;;2.75;1.50;;;;;;;;;;5039670;28;20043;-76
2021/08/12 14:22:32;;;;;;;2.63;1.35;;;;;;;;;;5048609;28;20454;-77
2021/08/12 14:24:57;;;;;;;3.17;1.52;;;;;;;;;;5048593;28;20098;-79
2021/08/12 14:27:22;;;;;;;2.33;0.90;;;;;;;;;;5048680;28;20453;-76
2021/08/12 14:29:48;;;;;;;1.95;0.90;;;;;;;;;;5049230;28;20033;-76
2021/08/12 14:32:13;;;;;;;3.63;1.00;;;;;;;;;;5048466;28;20033;-77
2021/08/12 14:34:38;;;;;;;4.93;1.17;;;;;;;;;;5048166;28;20017;-76
2021/08/12 14:37:04;;;;;;;1.13;0.75;;;;;;;;;;5048487;28;20037;-77